Time;durP1;ratioP1;P1;durP2;ratioP2;P2;SDS_P1;SDS_P2;PMS_P1;PMS_P2;Temp;Humidity;BMP_temperature;BMP_pressure;BME280_temperature;BME280_humidity;BME280_pressure;Samples;Min_cycle;Max_cycle;Signal;HPM_P1;HPM_P2
2020/12/13 00:02:16;;;;;;;7.67;6.07;;;8.90;99.90;;;;;;5070356;28;20666;-56
2020/12/13 00:04:42;;;;;;;5.87;5.37;;;8.80;99.90;;;;;;5070079;28;20185;-56
2020/12/13 00:07:08;;;;;;;6.50;5.90;;;8.90;99.90;;;;;;5070588;28;20518;-56
2020/12/13 00:09:34;;;;;;;7.45;5.85;;;9.00;99.90;;;;;;5070000;28;20631;-56
2020/12/13 00:12:04;;;;;;;6.32;5.72;;;8.70;99.90;;;;;;5070092;28;20185;-56
2020/12/13 00:14:30;;;;;;;6.82;5.30;;;8.70;99.90;;;;;;5069816;28;20185;-56
2020/12/13 00:16:56;;;;;;;5.43;5.00;;;8.80;99.90;;;;;;5069987;28;20238;-56
2020/12/13 00:19:22;;;;;;;6.03;5.35;;;8.90;99.90;;;;;;5068341;28;20210;-56
2020/12/13 00:21:53;;;;;;;5.55;4.97;;;8.70;99.90;;;;;;5070140;28;20187;-56
2020/12/13 00:24:19;;;;;;;5.95;4.82;;;8.90;99.90;;;;;;5069954;28;20185;-56
2020/12/13 00:26:45;;;;;;;5.55;5.05;;;8.90;99.90;;;;;;5069937;28;20562;-56
2020/12/13 00:29:11;;;;;;;4.82;4.35;;;8.60;99.90;;;;;;5069189;28;20592;-55
2020/12/13 00:31:37;;;;;;;8.27;5.30;;;8.40;99.90;;;;;;5069557;28;20189;-58
2020/12/13 00:34:03;;;;;;;5.97;5.37;;;8.60;99.90;;;;;;5069434;28;20266;-56
2020/12/13 00:36:29;;;;;;;5.57;5.10;;;8.70;99.90;;;;;;5069784;28;20196;-56
2020/12/13 00:38:54;;;;;;;5.90;5.30;;;8.80;99.90;;;;;;5069752;28;20185;-56
2020/12/13 00:41:20;;;;;;;4.73;4.33;;;8.70;99.90;;;;;;5069895;28;20760;-56
2020/12/13 00:43:46;;;;;;;5.17;4.70;;;8.70;99.90;;;;;;5070031;28;20300;-56
2020/12/13 00:46:11;;;;;;;4.70;3.67;;;9.10;99.90;;;;;;5069565;28;20205;-56
2020/12/13 00:48:37;;;;;;;4.50;4.10;;;8.90;99.90;;;;;;5069636;28;20177;-57
2020/12/13 00:51:02;;;;;;;4.20;3.83;;;8.80;99.90;;;;;;5070359;28;20188;-56
2020/12/13 00:53:28;;;;;;;3.70;3.40;;;9.00;99.90;;;;;;5069996;28;20571;-56
2020/12/13 00:55:53;;;;;;;3.77;3.47;;;9.10;99.90;;;;;;5069974;28;20209;-56
2020/12/13 00:58:19;;;;;;;4.37;3.97;;;9.00;99.90;;;;;;5069356;28;20215;-56
2020/12/13 01:00:45;;;;;;;3.90;3.60;;;9.30;99.90;;;;;;5069438;28;20178;-56
2020/12/13 01:03:11;;;;;;;4.00;3.20;;;8.70;99.90;;;;;;5070678;28;20693;-56
2020/12/13 01:05:37;;;;;;;6.73;4.83;;;9.20;99.90;;;;;;5069407;28;20266;-56
2020/12/13 01:08:03;;;;;;;5.27;4.77;;;8.90;99.90;;;;;;5069016;28;20185;-56
2020/12/13 01:10:29;;;;;;;6.50;4.60;;;8.80;99.90;;;;;;5068721;28;20181;-56
2020/12/13 01:12:54;;;;;;;4.60;4.20;;;9.00;99.90;;;;;;5068954;28;20188;-56
2020/12/13 01:15:23;;;;;;;5.43;4.67;;;9.00;99.90;;;;;;5065860;28;20212;-56
2020/12/13 01:17:49;;;;;;;6.10;5.25;;;8.80;99.90;;;;;;5064534;28;20209;-56
2020/12/13 01:20:16;;;;;;;6.07;5.05;;;8.70;99.90;;;;;;5069053;28;20177;-57
2020/12/13 01:22:42;;;;;;;5.05;4.30;;;8.70;99.90;;;;;;5069033;28;20181;-56
2020/12/13 01:25:09;;;;;;;4.80;4.40;;;8.90;99.90;;;;;;5069842;28;20613;-56
2020/12/13 01:27:36;;;;;;;5.43;4.93;;;8.90;99.90;;;;;;5065957;28;20193;-56
2020/12/13 01:30:06;;;;;;;6.53;5.05;;;8.60;99.90;;;;;;5068385;28;20275;-56
2020/12/13 01:32:39;;;;;;;6.22;5.63;;;8.50;99.90;;;;;;5068561;28;20195;-56
2020/12/13 01:35:06;;;;;;;5.95;5.45;;;8.70;99.90;;;;;;5062989;28;20210;-56
2020/12/13 01:37:32;;;;;;;5.70;4.90;;;8.30;99.90;;;;;;5064811;28;20222;-57
2020/12/13 01:39:57;;;;;;;6.60;4.53;;;8.60;99.90;;;;;;5069839;28;20815;-57
2020/12/13 01:42:23;;;;;;;4.63;4.23;;;8.90;99.90;;;;;;5068429;28;20537;-56
2020/12/13 01:44:49;;;;;;;5.00;4.50;;;8.80;99.90;;;;;;5068879;28;20179;-56
2020/12/13 01:47:15;;;;;;;6.53;5.87;;;8.50;99.90;;;;;;5068036;28;20666;-57
2020/12/13 01:49:43;;;;;;;4.40;4.00;;;8.70;99.90;;;;;;5068412;28;20678;-56
2020/12/13 01:55:11;;;;;;;6.10;4.88;;;8.60;99.90;;;;;;5070317;28;20769;-56
2020/12/13 01:57:40;;;;;;;5.45;4.95;;;8.60;99.90;;;;;;5067688;28;20212;-56
2020/12/13 02:00:10;;;;;;;7.15;5.80;;;8.70;99.90;;;;;;5068422;28;20238;-56
2020/12/13 02:03:00;;;;;;;5.72;4.68;;;8.50;99.90;;;;;;5068490;28;20551;-56
2020/12/13 02:05:27;;;;;;;6.68;5.45;;;8.70;99.90;;;;;;5079537;28;20263;-56
2020/12/13 02:07:55;;;;;;;6.20;5.60;;;8.60;99.90;;;;;;5068260;28;20181;-57
2020/12/13 02:10:21;;;;;;;6.50;5.53;;;8.90;99.90;;;;;;5067786;28;20189;-56
2020/12/13 02:12:47;;;;;;;6.90;5.40;;;8.70;99.90;;;;;;5067745;28;20173;-56
2020/12/13 02:15:13;;;;;;;6.50;5.50;;;8.80;99.90;;;;;;5066772;28;20212;-56
2020/12/13 02:17:40;;;;;;;5.50;5.00;;;8.50;99.90;;;;;;5068670;28;20885;-56
2020/12/13 02:20:09;;;;;;;5.82;5.28;;;8.40;99.90;;;;;;5067934;28;20402;-56
2020/12/13 02:22:53;;;;;;;5.50;4.90;;;8.90;99.90;;;;;;5067948;28;20569;-56
2020/12/13 02:25:21;;;;;;;5.90;5.30;;;8.80;99.90;;;;;;5067978;28;20248;-56
2020/12/13 02:27:48;;;;;;;5.47;4.97;;;8.90;99.90;;;;;;5065340;28;20620;-56
2020/12/13 02:30:15;;;;;;;5.60;5.00;;;8.40;99.90;;;;;;5067146;28;20173;-56
2020/12/13 02:32:40;;;;;;;4.25;3.95;;;8.40;99.90;;;;;;5067388;28;20181;-56
2020/12/13 02:35:08;;;;;;;4.80;4.30;;;8.40;99.90;;;;;;5068324;28;20544;-56
2020/12/13 02:37:34;;;;;;;3.72;3.40;;;8.50;99.90;;;;;;5067756;28;20443;-56
2020/12/13 02:40:02;;;;;;;4.20;3.83;;;8.70;99.90;;;;;;5067734;28;20593;-56
2020/12/13 02:42:27;;;;;;;3.60;3.30;;;8.60;99.90;;;;;;5068058;28;20340;-56
2020/12/13 02:44:53;;;;;;;3.80;3.50;;;8.80;99.90;;;;;;5067701;28;20227;-56
2020/12/13 02:47:19;;;;;;;3.30;3.10;;;8.80;99.90;;;;;;5067537;28;20259;-56
2020/12/13 02:49:44;;;;;;;4.17;3.87;;;8.90;99.90;;;;;;5067451;28;20431;-56
2020/12/13 02:52:10;;;;;;;4.47;3.37;;;8.20;99.90;;;;;;5068721;28;20224;-56
2020/12/13 02:54:37;;;;;;;3.83;3.53;;;8.90;99.90;;;;;;5067632;28;20206;-56
2020/12/13 02:57:03;;;;;;;3.97;3.67;;;8.70;99.90;;;;;;5067455;28;20529;-56
2020/12/13 02:59:29;;;;;;;3.30;3.00;;;8.70;99.90;;;;;;5067170;28;20604;-56
2020/12/13 03:01:55;;;;;;;3.70;3.40;;;8.80;99.90;;;;;;5067148;28;20185;-56
2020/12/13 03:04:20;;;;;;;3.10;2.90;;;8.80;99.90;;;;;;5067753;28;20427;-56
2020/12/13 03:06:46;;;;;;;3.30;3.00;;;8.90;99.90;;;;;;5067765;28;20696;-57
2020/12/13 03:09:12;;;;;;;3.00;2.70;;;8.60;99.90;;;;;;5066503;28;20194;-56
2020/12/13 03:11:37;;;;;;;2.67;2.47;;;8.90;99.90;;;;;;5067182;28;20643;-56
2020/12/13 03:14:03;;;;;;;3.57;3.03;;;9.00;99.90;;;;;;5068583;28;20185;-56
2020/12/13 03:16:28;;;;;;;3.37;3.03;;;8.80;99.90;;;;;;5067511;28;20201;-56
2020/12/13 03:18:54;;;;;;;3.53;3.13;;;9.00;99.90;;;;;;5063730;28;20224;-57
2020/12/13 03:21:20;;;;;;;2.87;2.67;;;9.00;99.90;;;;;;5066424;28;20670;-56
2020/12/13 03:23:46;;;;;;;3.30;2.97;;;9.00;99.90;;;;;;5067397;28;20474;-57
2020/12/13 03:26:12;;;;;;;3.50;3.20;;;8.90;99.90;;;;;;5068878;28;20231;-57
2020/12/13 03:28:37;;;;;;;4.53;3.50;;;8.70;99.90;;;;;;5071244;28;20217;-56
2020/12/13 03:31:03;;;;;;;4.03;3.63;;;8.70;99.90;;;;;;5071326;28;20597;-57
2020/12/13 03:33:29;;;;;;;4.37;3.97;;;8.60;99.90;;;;;;5071710;28;20607;-55
2020/12/13 03:35:54;;;;;;;4.20;3.80;;;8.90;99.90;;;;;;5070099;28;20458;-56
2020/12/13 03:38:20;;;;;;;3.60;3.30;;;8.80;99.90;;;;;;5071501;28;20495;-56
2020/12/13 03:40:46;;;;;;;3.40;3.10;;;8.70;99.90;;;;;;5071187;28;20185;-56
2020/12/13 03:43:11;;;;;;;4.90;3.30;;;8.50;99.90;;;;;;5071113;28;20185;-56
2020/12/13 03:45:37;;;;;;;3.37;3.07;;;8.70;99.90;;;;;;5071061;28;20197;-56
2020/12/13 03:48:03;;;;;;;3.17;2.97;;;8.60;99.90;;;;;;5070723;28;20188;-56
2020/12/13 03:50:38;;;;;;;5.85;3.13;;;8.50;99.90;;;;;;5070464;28;20185;-56
2020/12/13 03:53:05;;;;;;;3.10;2.80;;;8.70;99.90;;;;;;5070753;28;20201;-56
2020/12/13 03:55:30;;;;;;;3.75;3.45;;;8.70;99.90;;;;;;5070487;28;20215;-56
2020/12/13 03:57:56;;;;;;;3.50;3.20;;;8.80;99.90;;;;;;5070262;28;20201;-56
2020/12/13 04:00:21;;;;;;;3.57;3.23;;;8.70;99.90;;;;;;5070565;28;20180;-57
2020/12/13 04:02:47;;;;;;;3.50;3.20;;;8.70;99.90;;;;;;5071140;28;20209;-56
2020/12/13 04:05:13;;;;;;;3.80;3.07;;;8.80;99.90;;;;;;5070763;28;20242;-57
2020/12/13 04:07:38;;;;;;;3.70;3.30;;;8.40;99.90;;;;;;5069130;28;20180;-57
2020/12/13 04:10:04;;;;;;;3.43;3.10;;;8.80;99.90;;;;;;5070212;28;20184;-57
2020/12/13 04:12:29;;;;;;;4.20;3.60;;;8.90;99.90;;;;;;5069413;28;20191;-56
2020/12/13 04:14:55;;;;;;;6.20;3.33;;;8.90;99.90;;;;;;5070211;28;20181;-56
2020/12/13 04:17:21;;;;;;;2.80;2.60;;;8.70;99.90;;;;;;5070526;28;20209;-56
2020/12/13 04:19:46;;;;;;;2.93;2.73;;;8.70;99.90;;;;;;5070194;28;20630;-56
2020/12/13 04:22:12;;;;;;;2.70;2.50;;;8.80;99.90;;;;;;5070173;28;20177;-57
2020/12/13 04:24:37;;;;;;;3.00;2.70;;;8.90;99.90;;;;;;5070356;28;20197;-57
2020/12/13 04:27:03;;;;;;;3.43;2.70;;;8.70;99.90;;;;;;5069543;28;20205;-56
2020/12/13 04:29:29;;;;;;;3.47;3.17;;;9.00;99.90;;;;;;5070293;28;20257;-56
2020/12/13 04:31:54;;;;;;;3.50;3.20;;;8.50;99.90;;;;;;5070552;28;20199;-56
2020/12/13 04:34:20;;;;;;;4.10;3.70;;;8.60;99.90;;;;;;5069654;28;20232;-56
2020/12/13 04:36:45;;;;;;;3.77;3.47;;;8.70;99.90;;;;;;5070307;28;20254;-56
2020/12/13 04:39:11;;;;;;;3.00;2.80;;;8.50;99.90;;;;;;5085724;28;20227;-56
2020/12/13 04:41:36;;;;;;;3.37;3.07;;;8.80;99.90;;;;;;5069797;28;20180;-56
2020/12/13 04:44:02;;;;;;;3.40;3.10;;;8.40;99.90;;;;;;5069858;28;20192;-56
2020/12/13 04:46:32;;;;;;;3.60;3.30;;;8.60;99.90;;;;;;5069907;28;20261;-56
2020/12/13 04:48:58;;;;;;;3.95;3.22;;;8.80;99.90;;;;;;5070862;28;20181;-56
2020/12/13 04:51:27;;;;;;;3.43;3.10;;;8.80;99.90;;;;;;5069815;28;20177;-56
2020/12/13 04:54:03;;;;;;;3.17;2.88;;;8.80;99.90;;;;;;5069943;28;20191;-56
2020/12/13 04:56:33;;;;;;;4.72;3.40;;;8.60;99.90;;;;;;5069616;28;20217;-56
2020/12/13 04:59:02;;;;;;;4.45;3.40;;;8.50;99.90;;;;;;5069510;28;20587;-56
2020/12/13 05:01:31;;;;;;;4.55;3.50;;;8.90;99.90;;;;;;5069157;28;20486;-57
2020/12/13 05:03:58;;;;;;;4.22;3.33;;;8.80;99.90;;;;;;5069363;28;20547;-57
2020/12/13 05:06:25;;;;;;;3.42;3.13;;;8.80;99.90;;;;;;5069958;28;20197;-57
2020/12/13 05:08:51;;;;;;;3.55;3.25;;;9.10;99.90;;;;;;5068638;28;20181;-58
2020/12/13 05:11:17;;;;;;;5.57;3.13;;;9.00;99.90;;;;;;5068785;28;20188;-57
2020/12/13 05:13:43;;;;;;;3.17;2.87;;;8.70;99.90;;;;;;5069517;28;20613;-57
2020/12/13 05:16:10;;;;;;;2.90;2.70;;;8.70;99.90;;;;;;5070756;28;20216;-58
2020/12/13 05:18:39;;;;;;;4.45;3.08;;;8.80;99.90;;;;;;5065507;28;20237;-58
2020/12/13 05:21:06;;;;;;;3.25;2.95;;;8.90;99.90;;;;;;5068769;28;20279;-58
2020/12/13 05:23:32;;;;;;;3.60;3.30;;;9.00;99.90;;;;;;5070460;28;20199;-58
2020/12/13 05:25:58;;;;;;;3.75;3.00;;;9.00;99.90;;;;;;5070362;28;20219;-57
2020/12/13 05:28:24;;;;;;;3.40;3.10;;;8.80;99.90;;;;;;5068631;28;20193;-57
2020/12/13 05:30:52;;;;;;;3.40;3.10;;;9.00;99.90;;;;;;5068530;28;20239;-57
2020/12/13 05:33:34;;;;;;;3.60;3.30;;;8.70;99.90;;;;;;5068855;28;20185;-57
2020/12/13 05:36:04;;;;;;;3.38;3.08;;;8.70;99.90;;;;;;5068552;28;20302;-58
2020/12/13 05:38:35;;;;;;;5.97;3.83;;;8.90;99.90;;;;;;5068985;28;20240;-57
2020/12/13 05:41:01;;;;;;;3.00;2.80;;;9.00;99.90;;;;;;5069243;28;20199;-57
2020/12/13 05:43:31;;;;;;;3.40;2.80;;;8.80;99.90;;;;;;5069543;28;20330;-57
2020/12/13 05:53:31;;;;;;;3.05;2.85;;;8.80;99.90;;;;;;5070005;28;20185;-58
2020/12/13 05:55:57;;;;;;;2.90;2.60;;;8.80;99.90;;;;;;5068074;28;20209;-57
2020/12/13 05:58:26;;;;;;;2.85;2.65;;;8.70;99.90;;;;;;5068237;28;20678;-57
2020/12/13 06:00:56;;;;;;;3.50;3.20;;;8.70;99.90;;;;;;5067722;28;20311;-57
2020/12/13 06:03:38;;;;;;;4.25;2.90;;;8.80;99.90;;;;;;5068417;28;20264;-57
2020/12/13 06:06:09;;;;;;;3.40;3.08;;;8.70;99.90;;;;;;5056435;28;20201;-57
2020/12/13 06:08:50;;;;;;;3.03;2.83;;;8.80;99.90;;;;;;5067644;28;20189;-57
2020/12/13 06:11:19;;;;;;;3.35;3.05;;;8.50;99.90;;;;;;5065758;28;20182;-57
2020/12/13 06:13:51;;;;;;;4.00;3.58;;;8.70;99.90;;;;;;5067801;28;20192;-57
2020/12/13 06:16:17;;;;;;;2.70;2.50;;;8.80;99.90;;;;;;5068176;28;20251;-57
2020/12/13 06:18:43;;;;;;;2.15;2.05;;;9.00;99.90;;;;;;5064052;28;20213;-57
2020/12/13 06:21:12;;;;;;;3.42;3.10;;;9.00;99.90;;;;;;5066916;28;20230;-57
2020/12/13 06:23:40;;;;;;;3.22;2.92;;;8.50;99.90;;;;;;5067903;28;20256;-57
2020/12/13 06:26:06;;;;;;;4.72;2.50;;;9.00;99.90;;;;;;5067248;28;20217;-57
2020/12/13 06:28:32;;;;;;;2.90;2.00;;;8.70;99.90;;;;;;5061332;28;20238;-58
2020/12/13 06:31:02;;;;;;;2.73;2.53;;;8.30;99.90;;;;;;5074341;28;20435;-57
2020/12/13 06:33:27;;;;;;;2.80;2.60;;;8.60;99.90;;;;;;5067851;28;20413;-57
2020/12/13 06:35:53;;;;;;;2.80;2.60;;;8.70;99.90;;;;;;5067565;28;20469;-57
2020/12/13 06:38:19;;;;;;;2.97;2.67;;;8.90;99.90;;;;;;5067233;28;20493;-57
2020/12/13 06:40:48;;;;;;;2.60;2.40;;;9.10;99.90;;;;;;5067643;28;20544;-57
2020/12/13 06:43:17;;;;;;;2.72;2.53;;;8.80;99.90;;;;;;5067799;28;20181;-58
2020/12/13 06:45:42;;;;;;;2.80;2.60;;;8.50;99.90;;;;;;5065177;28;20201;-58
2020/12/13 06:48:08;;;;;;;2.60;2.40;;;8.70;99.90;;;;;;5065880;28;20180;-57
2020/12/13 06:50:36;;;;;;;3.10;2.80;;;8.50;99.90;;;;;;5067813;28;20181;-58
2020/12/13 06:53:01;;;;;;;2.70;2.50;;;8.70;99.90;;;;;;5067948;28;20692;-58
2020/12/13 06:55:34;;;;;;;2.73;2.53;;;9.00;99.90;;;;;;5068751;28;20232;-57
2020/12/13 06:58:00;;;;;;;2.58;2.38;;;9.00;99.90;;;;;;5065132;28;20192;-58
2020/12/13 07:00:27;;;;;;;2.60;2.22;;;8.80;99.90;;;;;;5069885;28;20714;-58
2020/12/13 07:03:00;;;;;;;3.05;2.40;;;8.80;99.90;;;;;;5071837;28;20181;-58
2020/12/13 07:05:48;;;;;;;2.03;1.83;;;8.80;99.90;;;;;;5073751;28;20209;-57
2020/12/13 07:08:24;;;;;;;2.30;2.13;;;8.80;99.90;;;;;;5077390;28;20181;-59
2020/12/13 07:10:52;;;;;;;2.70;2.50;;;8.90;99.90;;;;;;5069284;28;20203;-57
2020/12/13 07:13:21;;;;;;;2.70;2.50;;;9.00;99.90;;;;;;5073754;28;20621;-58
2020/12/13 07:18:25;;;;;;;2.58;2.38;;;8.80;99.90;;;;;;5073883;28;20212;-57
2020/12/13 07:20:51;;;;;;;2.45;2.35;;;8.80;99.90;;;;;;5074174;28;20181;-58
2020/12/13 07:23:17;;;;;;;2.77;2.10;;;9.10;99.90;;;;;;5073358;28;20638;-58
2020/12/13 07:25:42;;;;;;;2.17;1.87;;;9.30;99.90;;;;;;5073048;28;20704;-56
2020/12/13 07:28:08;;;;;;;2.33;1.90;;;9.10;99.90;;;;;;5072902;28;20184;-57
2020/12/13 07:30:37;;;;;;;2.20;1.95;;;9.00;99.90;;;;;;5074010;28;20195;-57
2020/12/13 07:33:04;;;;;;;2.47;2.25;;;9.10;99.90;;;;;;5074061;28;20604;-59
2020/12/13 07:35:29;;;;;;;2.72;2.10;;;9.00;99.90;;;;;;5073093;28;20209;-57
2020/12/13 07:37:56;;;;;;;3.37;2.63;;;9.20;99.90;;;;;;5073177;28;20197;-56
2020/12/13 07:40:22;;;;;;;1.80;1.70;;;9.20;99.90;;;;;;5074330;28;20177;-57
2020/12/13 07:42:59;;;;;;;2.90;2.00;;;9.00;99.90;;;;;;5073578;28;20173;-57
2020/12/13 07:45:25;;;;;;;2.20;1.92;;;9.30;99.90;;;;;;5074175;28;20208;-56
2020/12/13 07:48:00;;;;;;;2.33;1.73;;;8.90;99.90;;;;;;5073072;28;20185;-57
2020/12/13 07:50:28;;;;;;;2.15;1.50;;;9.00;99.90;;;;;;5073673;28;20184;-56
2020/12/13 07:52:54;;;;;;;2.58;1.90;;;9.00;99.90;;;;;;5073213;28;20650;-57
2020/12/13 07:55:20;;;;;;;2.30;2.10;;;8.80;99.90;;;;;;5073510;28;20262;-56
2020/12/13 07:57:49;;;;;;;1.53;1.43;;;9.20;99.90;;;;;;5072561;28;20205;-58
2020/12/13 08:00:15;;;;;;;2.03;1.80;;;8.80;99.90;;;;;;5076405;28;20646;-58
2020/12/13 08:02:41;;;;;;;2.50;2.30;;;8.80;99.90;;;;;;5069272;28;20185;-58
2020/12/13 08:05:07;;;;;;;3.03;2.20;;;9.10;99.90;;;;;;5072056;28;20671;-57
2020/12/13 08:07:33;;;;;;;2.27;1.90;;;8.90;99.90;;;;;;5072024;28;20220;-57
2020/12/13 08:09:58;;;;;;;2.47;1.93;;;8.90;99.90;;;;;;5070233;28;20181;-57
2020/12/13 08:12:33;;;;;;;1.93;1.83;;;8.80;99.90;;;;;;5086858;28;20185;-57
2020/12/13 08:14:59;;;;;;;2.03;1.80;;;9.00;99.90;;;;;;5069670;28;20442;-57
2020/12/13 08:17:25;;;;;;;2.40;1.53;;;8.70;99.90;;;;;;5068206;28;20208;-58
2020/12/13 08:20:12;;;;;;;2.00;1.60;;;8.60;99.90;;;;;;5064782;28;20181;-57
2020/12/13 08:22:39;;;;;;;2.20;1.65;;;8.80;99.90;;;;;;5067678;28;20187;-57
2020/12/13 08:25:06;;;;;;;1.80;1.70;;;8.50;99.90;;;;;;5068253;28;20227;-57
2020/12/13 08:27:37;;;;;;;1.30;1.20;;;8.70;99.90;;;;;;5070579;28;20607;-57
2020/12/13 08:30:05;;;;;;;2.38;1.35;;;8.90;99.90;;;;;;5068787;28;20189;-57
2020/12/13 08:32:33;;;;;;;1.80;1.70;;;8.60;99.90;;;;;;5069537;28;20192;-57
2020/12/13 08:35:19;;;;;;;1.92;1.40;;;8.80;99.90;;;;;;5071184;28;20185;-64
2020/12/13 08:37:59;;;;;;;1.80;1.70;;;8.60;99.90;;;;;;5068456;28;20697;-57
2020/12/13 08:40:38;;;;;;;2.20;1.95;;;9.00;99.90;;;;;;5070106;28;20200;-57
2020/12/13 08:43:06;;;;;;;3.08;2.42;;;8.80;99.90;;;;;;5069482;28;20189;-56
2020/12/13 08:45:32;;;;;;;3.05;1.80;;;8.90;99.90;;;;;;5069597;28;20690;-56
2020/12/13 08:48:00;;;;;;;2.00;1.90;;;8.60;99.90;;;;;;5068616;28;20546;-56
2020/12/13 08:50:26;;;;;;;2.25;1.63;;;8.80;99.90;;;;;;5069375;28;20189;-56
2020/12/13 08:52:52;;;;;;;3.22;1.70;;;9.00;99.90;;;;;;5078497;28;20181;-57
2020/12/13 08:55:27;;;;;;;1.90;1.80;;;9.00;99.90;;;;;;5073265;28;20594;-58
2020/12/13 08:58:00;;;;;;;2.70;2.20;;;9.00;99.90;;;;;;5068618;28;20207;-56
2020/12/13 09:00:27;;;;;;;2.45;2.25;;;9.00;99.90;;;;;;5069292;28;20629;-55
2020/12/13 09:03:03;;;;;;;2.35;2.20;;;9.20;99.90;;;;;;5068321;28;20654;-57
2020/12/13 09:05:33;;;;;;;2.42;1.80;;;9.20;99.90;;;;;;5070296;28;20216;-57
2020/12/13 09:08:00;;;;;;;2.40;2.20;;;9.00;99.90;;;;;;5068181;28;20177;-56
2020/12/13 09:10:28;;;;;;;2.15;1.95;;;9.20;99.90;;;;;;5074079;28;20172;-55
2020/12/13 09:12:54;;;;;;;2.30;2.10;;;9.00;99.90;;;;;;5068107;28;20189;-56
2020/12/13 09:15:24;;;;;;;2.63;2.40;;;9.20;99.90;;;;;;5068704;28;20232;-57
2020/12/13 09:18:04;;;;;;;3.88;3.58;;;9.50;99.90;;;;;;5068165;28;20236;-57
2020/12/13 09:20:31;;;;;;;4.28;3.10;;;9.60;99.90;;;;;;5068097;28;20187;-56
2020/12/13 09:23:19;;;;;;;3.13;2.83;;;9.40;99.90;;;;;;5067876;28;20204;-56
2020/12/13 09:25:47;;;;;;;3.17;2.30;;;9.60;99.90;;;;;;5069019;28;20212;-57
2020/12/13 09:28:14;;;;;;;3.72;2.70;;;9.70;99.90;;;;;;5077385;28;20250;-57
2020/12/13 09:30:41;;;;;;;3.10;2.90;;;9.80;99.90;;;;;;5068276;28;20207;-58
2020/12/13 09:33:08;;;;;;;2.90;2.65;;;9.70;99.90;;;;;;5068569;28;20566;-56
2020/12/13 09:35:33;;;;;;;2.67;2.42;;;9.80;99.90;;;;;;5067896;28;20205;-57
2020/12/13 09:38:01;;;;;;;2.83;2.63;;;9.90;99.90;;;;;;5068187;28;20201;-56
2020/12/13 09:40:27;;;;;;;2.50;2.30;;;9.40;99.90;;;;;;5067933;28;20196;-58
2020/12/13 09:42:54;;;;;;;4.50;2.92;;;9.90;99.90;;;;;;5067633;28;20185;-58
2020/12/13 09:45:20;;;;;;;3.70;2.47;;;9.90;99.90;;;;;;5082051;28;20208;-58
2020/12/13 09:47:46;;;;;;;3.00;2.47;;;9.70;99.90;;;;;;5074548;28;20192;-58
2020/12/13 09:50:12;;;;;;;3.97;2.90;;;10.00;99.90;;;;;;5063096;28;20185;-58
2020/12/13 09:52:38;;;;;;;2.45;2.25;;;9.90;99.90;;;;;;5068283;28;20708;-58
2020/12/13 09:55:05;;;;;;;5.17;3.10;;;10.20;99.90;;;;;;5076584;28;20220;-58
2020/12/13 09:57:31;;;;;;;3.08;2.75;;;10.30;99.90;;;;;;5068221;28;20208;-58
2020/12/13 09:59:56;;;;;;;3.17;2.40;;;9.80;99.90;;;;;;5066762;28;20177;-58
2020/12/13 10:02:22;;;;;;;2.70;2.50;;;10.10;99.90;;;;;;5067910;28;20187;-58
2020/12/13 10:04:48;;;;;;;2.97;2.73;;;10.50;99.90;;;;;;5067768;28;20209;-61
2020/12/13 10:09:57;;;;;;;3.67;3.00;;;10.30;99.90;;;;;;5069008;28;20187;-59
2020/12/13 10:12:23;;;;;;;3.67;3.10;;;10.60;99.90;;;;;;5068212;28;20189;-60
2020/12/13 10:14:49;;;;;;;3.73;3.13;;;10.60;99.90;;;;;;5066554;28;20188;-59
2020/12/13 10:17:15;;;;;;;5.60;3.20;;;10.40;99.90;;;;;;5067557;28;20673;-58
2020/12/13 10:19:40;;;;;;;2.70;2.50;;;10.30;99.90;;;;;;5067884;28;20805;-60
2020/12/13 10:22:06;;;;;;;2.87;2.67;;;10.50;99.90;;;;;;5066967;28;21161;-61
2020/12/13 10:24:32;;;;;;;3.90;3.00;;;10.60;99.90;;;;;;5068835;28;20291;-60
2020/12/13 10:26:57;;;;;;;4.73;3.13;;;10.70;99.90;;;;;;5066447;28;20213;-60
2020/12/13 10:29:23;;;;;;;3.77;2.90;;;10.60;99.90;;;;;;5065630;28;20458;-60
2020/12/13 10:31:49;;;;;;;2.73;2.53;;;10.40;99.90;;;;;;5067204;28;20181;-60
2020/12/13 10:34:16;;;;;;;2.93;2.20;;;10.70;99.90;;;;;;5067191;28;20254;-60
2020/12/13 10:36:42;;;;;;;3.55;2.10;;;10.80;99.90;;;;;;5067090;28;20285;-59
2020/12/13 10:39:09;;;;;;;2.13;1.92;;;10.60;99.90;;;;;;5066046;28;20244;-58
2020/12/13 10:41:36;;;;;;;2.55;2.20;;;11.00;99.90;;;;;;5067831;28;20173;-59
2020/12/13 10:44:02;;;;;;;2.63;2.05;;;11.10;99.90;;;;;;5067496;28;20502;-58
2020/12/13 10:46:28;;;;;;;2.70;1.80;;;11.20;99.90;;;;;;5066224;28;20200;-58
2020/12/13 10:48:54;;;;;;;2.27;2.07;;;11.30;99.90;;;;;;5067550;28;20184;-60
2020/12/13 10:51:20;;;;;;;2.63;1.60;;;11.50;99.90;;;;;;5067753;28;20237;-61
2020/12/13 10:53:49;;;;;;;1.77;1.67;;;11.40;99.90;;;;;;5067106;28;20748;-59
2020/12/13 10:56:15;;;;;;;1.63;1.52;;;11.40;99.90;;;;;;5066507;28;20213;-60
2020/12/13 10:58:42;;;;;;;1.85;1.65;;;11.20;99.70;;;;;;5066570;28;20266;-59
2020/12/13 11:01:09;;;;;;;2.33;1.70;;;11.20;99.80;;;;;;5066894;28;20194;-60
2020/12/13 11:03:35;;;;;;;2.20;1.60;;;11.50;99.70;;;;;;5067293;28;20216;-58
2020/12/13 11:06:01;;;;;;;1.73;1.45;;;11.20;99.10;;;;;;5066418;28;20266;-59
2020/12/13 11:08:27;;;;;;;1.30;1.20;;;11.30;99.60;;;;;;5067156;28;20189;-59
2020/12/13 11:10:52;;;;;;;1.70;1.60;;;10.90;99.10;;;;;;5066441;28;20713;-57
2020/12/13 11:13:18;;;;;;;3.77;1.60;;;10.80;99.30;;;;;;5067160;28;20280;-58
2020/12/13 11:15:45;;;;;;;2.38;1.58;;;10.90;99.60;;;;;;5067177;28;20209;-58
2020/12/13 11:18:11;;;;;;;2.38;2.17;;;11.00;99.90;;;;;;5066954;28;20211;-58
2020/12/13 11:20:37;;;;;;;4.75;2.10;;;11.00;99.90;;;;;;5066308;28;20169;-59
2020/12/13 11:23:03;;;;;;;3.33;2.17;;;11.00;99.90;;;;;;5070761;28;20674;-58
2020/12/13 11:25:29;;;;;;;2.22;2.10;;;10.90;99.90;;;;;;5066695;28;20221;-59
2020/12/13 11:27:56;;;;;;;1.70;1.60;;;10.90;99.90;;;;;;5065173;28;20255;-58
2020/12/13 11:30:22;;;;;;;2.00;1.90;;;10.90;99.90;;;;;;5066346;28;20214;-56
2020/12/13 11:32:49;;;;;;;2.83;1.97;;;10.90;99.90;;;;;;5067079;28;20197;-58
2020/12/13 11:35:16;;;;;;;2.30;1.60;;;11.00;99.90;;;;;;5066486;28;20213;-59
2020/12/13 11:37:41;;;;;;;2.10;1.90;;;10.80;99.90;;;;;;5066444;28;20208;-57
2020/12/13 11:40:08;;;;;;;3.50;2.13;;;10.80;99.90;;;;;;5067069;28;20182;-57
2020/12/13 11:42:34;;;;;;;4.20;2.47;;;10.50;99.90;;;;;;5068633;28;20191;-57
2020/12/13 11:45:00;;;;;;;2.55;1.80;;;10.70;99.90;;;;;;5083938;28;20272;-58
2020/12/13 11:47:26;;;;;;;4.20;1.90;;;10.90;99.90;;;;;;5067861;28;20276;-58
2020/12/13 11:49:55;;;;;;;1.67;1.55;;;10.80;99.90;;;;;;5070959;28;20584;-58
2020/12/13 11:52:20;;;;;;;2.22;2.00;;;10.60;99.90;;;;;;5070739;28;20662;-57
2020/12/13 11:54:46;;;;;;;4.47;4.07;;;10.80;99.90;;;;;;5070581;28;20243;-57
2020/12/13 11:57:12;;;;;;;2.60;2.03;;;10.50;99.90;;;;;;5069814;28;20212;-58
2020/12/13 11:59:37;;;;;;;4.07;2.30;;;10.50;99.90;;;;;;5070386;28;20181;-57
2020/12/13 12:02:03;;;;;;;2.27;2.07;;;10.50;99.90;;;;;;5069355;28;20618;-58
2020/12/13 12:04:29;;;;;;;2.60;1.73;;;10.40;99.90;;;;;;5070894;28;20192;-57
2020/12/13 12:06:55;;;;;;;1.80;1.70;;;10.30;99.90;;;;;;5070043;28;20207;-57
2020/12/13 12:09:21;;;;;;;2.30;1.93;;;10.30;99.90;;;;;;5070506;28;20280;-58
2020/12/13 12:11:47;;;;;;;1.83;1.73;;;10.00;99.90;;;;;;5069636;28;20443;-58
2020/12/13 12:14:13;;;;;;;2.47;2.20;;;10.30;99.90;;;;;;5069637;28;20239;-58
2020/12/13 12:16:40;;;;;;;1.97;1.87;;;10.60;99.90;;;;;;5069472;28;20910;-57
2020/12/13 12:19:06;;;;;;;2.47;1.98;;;10.30;99.90;;;;;;5072078;28;20250;-57
2020/12/13 12:21:34;;;;;;;3.55;2.55;;;10.30;99.90;;;;;;5067138;28;20189;-57
2020/12/13 12:24:01;;;;;;;2.67;2.47;;;10.40;99.90;;;;;;5069008;28;20239;-57
2020/12/13 12:26:32;;;;;;;2.47;1.90;;;10.30;99.90;;;;;;5068846;28;20683;-57
2020/12/13 12:28:58;;;;;;;2.55;1.92;;;10.00;99.90;;;;;;5069341;28;20192;-57
2020/12/13 12:31:24;;;;;;;2.13;1.92;;;10.60;99.90;;;;;;5069869;28;20223;-57
2020/12/13 12:33:50;;;;;;;2.33;1.70;;;10.70;99.90;;;;;;5069193;28;20513;-57
2020/12/13 12:36:17;;;;;;;2.50;1.47;;;10.70;99.90;;;;;;5072387;28;20952;-57
2020/12/13 12:38:43;;;;;;;1.95;1.65;;;10.60;99.90;;;;;;5065291;28;20216;-57
2020/12/13 12:41:13;;;;;;;3.43;1.80;;;10.40;99.90;;;;;;5071188;28;20541;-58
2020/12/13 12:43:40;;;;;;;1.80;1.40;;;10.60;99.90;;;;;;5069257;28;20430;-57
2020/12/13 12:46:06;;;;;;;2.40;1.98;;;10.20;99.90;;;;;;5068793;28;20220;-57
2020/12/13 12:48:32;;;;;;;2.60;1.70;;;10.10;99.90;;;;;;5069097;28;20193;-57
2020/12/13 12:51:01;;;;;;;2.50;1.90;;;10.20;99.90;;;;;;5069496;28;20469;-58
2020/12/13 12:53:27;;;;;;;1.42;1.30;;;10.30;99.90;;;;;;5068876;28;20242;-57
2020/12/13 12:55:53;;;;;;;3.13;1.50;;;10.50;99.90;;;;;;5068538;28;20299;-57
2020/12/13 12:58:19;;;;;;;2.00;1.80;;;10.50;99.90;;;;;;5069016;28;20791;-56
2020/12/13 13:00:50;;;;;;;5.33;2.37;;;10.40;99.90;;;;;;5067677;28;20776;-56
2020/12/13 13:03:16;;;;;;;1.95;1.85;;;10.40;99.90;;;;;;5069606;28;20178;-57
2020/12/13 13:11:02;;;;;;;1.98;1.45;;;10.30;99.90;;;;;;5062987;28;20201;-57
2020/12/13 13:13:29;;;;;;;3.40;1.95;;;10.20;99.90;;;;;;5083026;28;20186;-57
2020/12/13 13:15:57;;;;;;;3.15;1.90;;;10.20;99.90;;;;;;5070033;28;20302;-57
2020/12/13 13:18:27;;;;;;;1.90;1.73;;;10.20;99.90;;;;;;5066924;28;20262;-58